Baltimore, Maryland
Traffic Map
Current Weather Conditions
Baltimore, Maryland
Overcast Heavy Rain
Overcast
40°
Feels Like: 31°
Wind Chill: 31° Ceiling: 1400
Heat Index: 40° Visibility: 1.5mi
Dew Point: 39° Wind: 18mph
Humidity: 97% Direction: 50° (NE)
Pressure: 29.48in Gusts: 0mph
Raw Report DataKBWI 231954Z 05016KT 1 1/2SM R10/4500VP6000FT +RA BR OVC014 04/04 A2948 RMK AO2 PK WND 04031/1900 SLP984 P0030 T00440039
Traffic Incident Summary
Active as of:
Severity:
Category:
InformationThere was an issue retrieving the traffic information for this location. Please try a different location or try again shortly.
Advertisements
Track Severe Weather on mobile